createdAt,value
2018-11-02T00:00:36.312Z,17.53
2018-11-02T00:03:04.749Z,18.63
2018-11-02T00:05:32.903Z,18.27
2018-11-02T00:08:07.845Z,16.83
2018-11-02T00:10:36.017Z,18.83
2018-11-02T00:13:04.203Z,19.10
2018-11-02T00:15:32.359Z,19.27
2018-11-02T00:18:00.508Z,18.43
2018-11-02T00:20:28.614Z,19.40
2018-11-02T00:22:56.772Z,18.27
2018-11-02T00:25:24.894Z,18.67
2018-11-02T00:27:53.005Z,17.67
2018-11-02T00:30:21.097Z,16.87
2018-11-02T00:32:49.318Z,17.23
2018-11-02T00:35:17.476Z,16.80
2018-11-02T00:37:45.632Z,16.03
2018-11-02T00:40:13.783Z,17.20
2018-11-02T00:42:41.848Z,16.00
2018-11-02T00:45:11.352Z,16.80
2018-11-02T00:47:39.934Z,15.10
2018-11-02T00:50:09.655Z,16.30
2018-11-02T00:52:37.751Z,15.83
2018-11-02T00:55:06.439Z,16.87
2018-11-02T00:57:34.593Z,15.00
2018-11-02T01:00:02.796Z,16.00
2018-11-02T01:02:30.972Z,17.83
2018-11-02T01:04:59.146Z,16.73
2018-11-02T01:07:27.313Z,17.10
2018-11-02T01:09:55.474Z,15.43
2018-11-02T01:12:23.731Z,16.40
2018-11-02T01:14:51.804Z,16.97
2018-11-02T01:17:19.892Z,16.03
2018-11-02T01:19:48.064Z,17.40
2018-11-02T01:22:16.241Z,15.80
2018-11-02T01:24:44.408Z,15.93
2018-11-02T01:27:12.509Z,16.23
2018-11-02T01:29:40.696Z,15.70
2018-11-02T01:32:08.848Z,16.10
2018-11-02T01:34:37.000Z,16.20
2018-11-02T01:37:05.395Z,16.10
2018-11-02T01:39:33.560Z,14.63
2018-11-02T01:42:01.855Z,16.23
2018-11-02T01:44:30.013Z,15.60
2018-11-02T01:46:58.213Z,16.13
2018-11-02T01:49:26.359Z,17.40
2018-11-02T01:51:54.456Z,16.23
2018-11-02T01:54:22.605Z,16.30
2018-11-02T01:56:50.690Z,15.47
2018-11-02T01:59:18.763Z,16.13
2018-11-02T02:01:46.922Z,15.17
2018-11-02T02:04:15.181Z,15.57
2018-11-02T02:06:43.267Z,16.00
2018-11-02T02:09:12.415Z,17.97
2018-11-02T02:11:40.564Z,15.73
2018-11-02T02:14:09.117Z,15.93
2018-11-02T02:16:37.512Z,16.50
2018-11-02T02:19:05.977Z,15.47
2018-11-02T02:21:34.180Z,16.67
2018-11-02T02:24:02.356Z,17.23
2018-11-02T02:26:30.529Z,16.87
2018-11-02T02:28:58.677Z,16.40
2018-11-02T02:31:26.847Z,18.17
2018-11-02T02:33:54.951Z,17.03
2018-11-02T02:36:23.133Z,16.23
2018-11-02T02:38:51.472Z,15.70
2018-11-02T02:41:19.577Z,15.87
2018-11-02T02:43:47.756Z,16.43
2018-11-02T02:46:15.906Z,15.93
2018-11-02T02:48:44.582Z,16.23
2018-11-02T02:51:12.672Z,16.03
2018-11-02T02:53:40.836Z,15.57
2018-11-02T02:56:08.908Z,15.17
2018-11-02T02:58:37.084Z,16.50
2018-11-02T03:01:05.410Z,16.40
2018-11-02T03:03:33.752Z,15.17
2018-11-02T03:06:01.929Z,17.63
2018-11-02T03:08:30.104Z,15.63
2018-11-02T03:11:01.008Z,17.20
2018-11-02T03:13:29.086Z,16.70
2018-11-02T03:15:57.231Z,17.57
2018-11-02T03:18:25.466Z,16.33
2018-11-02T03:20:56.631Z,16.57
2018-11-02T03:23:24.764Z,15.77
2018-11-02T03:25:52.849Z,15.93
2018-11-02T03:28:21.026Z,16.47
2018-11-02T03:30:49.191Z,15.97
2018-11-02T03:33:17.315Z,16.70
2018-11-02T03:35:45.476Z,16.40
2018-11-02T03:38:13.636Z,15.63
2018-11-02T03:40:41.803Z,16.03
2018-11-02T03:43:09.963Z,15.70
2018-11-02T03:45:38.189Z,15.30
2018-11-02T03:48:06.469Z,17.00
2018-11-02T03:50:34.592Z,15.90
2018-11-02T03:53:02.680Z,16.30
2018-11-02T03:55:30.956Z,15.07
2018-11-02T03:57:59.148Z,15.70
2018-11-02T04:00:27.869Z,15.70
2018-11-02T04:02:55.975Z,16.57
2018-11-02T04:05:24.051Z,16.80
2018-11-02T04:07:52.250Z,16.20
2018-11-02T04:10:20.387Z,15.30
2018-11-02T04:12:48.483Z,15.30
2018-11-02T04:15:16.659Z,16.50
2018-11-02T04:17:44.896Z,15.00
2018-11-02T04:20:12.988Z,15.90
2018-11-02T04:22:41.181Z,16.73
2018-11-02T04:25:09.522Z,16.87
2018-11-02T04:27:37.651Z,16.13
2018-11-02T04:30:06.538Z,17.30
2018-11-02T04:32:34.793Z,17.10
2018-11-02T04:35:02.903Z,16.20
2018-11-02T04:37:31.027Z,18.17
2018-11-02T04:39:59.233Z,17.13
2018-11-02T04:42:27.398Z,15.90
2018-11-02T04:44:55.556Z,17.67
2018-11-02T04:47:23.732Z,21.47
2018-11-02T04:49:51.911Z,17.00
2018-11-02T04:52:20.148Z,18.33
2018-11-02T04:54:48.252Z,17.00
2018-11-02T04:57:16.444Z,17.87
2018-11-02T04:59:44.603Z,16.67
2018-11-02T05:02:12.799Z,17.47
2018-11-02T05:04:40.949Z,16.33
2018-11-02T05:07:09.127Z,17.70
2018-11-02T05:09:37.349Z,19.90
2018-11-02T05:12:05.788Z,17.33
2018-11-02T05:14:33.955Z,16.87
2018-11-02T05:17:02.141Z,17.67
2018-11-02T05:19:30.322Z,18.13
2018-11-02T05:21:58.478Z,16.67
2018-11-02T05:24:26.656Z,17.27
2018-11-02T05:26:54.869Z,18.03
2018-11-02T05:29:22.940Z,17.70
2018-11-02T05:31:51.076Z,18.90
2018-11-02T05:34:19.244Z,18.33
2018-11-02T05:36:47.351Z,17.60
2018-11-02T05:39:15.536Z,18.67
2018-11-02T05:41:43.696Z,16.67
2018-11-02T05:44:12.335Z,15.87
2018-11-02T05:46:40.443Z,17.67
2018-11-02T05:49:08.609Z,16.27
2018-11-02T05:51:36.780Z,16.40
2018-11-02T05:54:05.076Z,15.63
2018-11-02T05:56:33.144Z,14.63
2018-11-02T05:59:01.295Z,16.97
2018-11-02T06:01:29.479Z,16.57
2018-11-02T06:03:57.665Z,17.47
2018-11-02T06:06:25.852Z,18.00
2018-11-02T06:08:54.016Z,16.90
2018-11-02T06:11:22.172Z,17.90
2018-11-02T06:13:50.340Z,16.70
2018-11-02T06:16:18.504Z,16.33
2018-11-02T06:18:46.609Z,16.40
2018-11-02T06:21:14.861Z,17.87
2018-11-02T06:23:43.063Z,17.20
2018-11-02T06:26:11.211Z,17.50
2018-11-02T06:28:39.425Z,17.90
2018-11-02T06:31:08.071Z,18.33
2018-11-02T06:33:36.131Z,17.03
2018-11-02T06:36:04.229Z,17.57
2018-11-02T06:38:32.409Z,17.63
2018-11-02T06:41:00.645Z,19.80
2018-11-02T06:43:28.747Z,20.07
2018-11-02T06:45:56.923Z,17.87
2018-11-02T06:48:24.997Z,18.33
2018-11-02T06:50:53.202Z,21.17
2018-11-02T06:53:21.682Z,18.03
2018-11-02T06:55:49.877Z,18.10
2018-11-02T06:58:18.001Z,18.63
2018-11-02T07:00:46.175Z,19.70
2018-11-02T07:03:14.466Z,20.70
2018-11-02T07:05:42.603Z,19.50
2018-11-02T07:08:10.822Z,17.90
2018-11-02T07:10:38.873Z,17.90
2018-11-02T07:13:07.054Z,18.93
2018-11-02T07:15:35.315Z,19.37
2018-11-02T07:18:03.392Z,19.80
2018-11-02T07:20:31.567Z,18.20
2018-11-02T07:22:59.943Z,19.67
2018-11-02T07:25:28.035Z,19.10
2018-11-02T07:27:56.208Z,19.57
2018-11-02T07:30:24.363Z,19.70
2018-11-02T07:32:52.448Z,20.93
2018-11-02T07:35:20.596Z,20.90
2018-11-02T07:37:48.723Z,20.37
2018-11-02T07:40:16.877Z,22.23
2018-11-02T07:42:45.039Z,19.93
2018-11-02T07:45:13.213Z,22.00
2018-11-02T07:47:41.430Z,21.97
2018-11-02T07:50:10.779Z,21.50
2018-11-02T07:52:38.979Z,22.47
2018-11-02T07:55:08.704Z,21.00
2018-11-02T07:57:37.131Z,21.40
2018-11-02T08:00:05.225Z,21.70
2018-11-02T08:02:33.410Z,21.70
2018-11-02T08:05:01.477Z,22.00
2018-11-02T08:07:29.688Z,21.43
2018-11-02T08:09:57.845Z,21.00
2018-11-02T08:12:26.357Z,22.23
2018-11-02T08:14:54.487Z,21.90
2018-11-02T08:17:22.657Z,22.43
2018-11-02T08:19:50.834Z,21.73
2018-11-02T08:22:18.992Z,22.27
2018-11-02T08:24:47.113Z,21.50
2018-11-02T08:27:15.281Z,21.80
2018-11-02T08:29:43.711Z,23.17
2018-11-02T08:32:11.839Z,23.80
2018-11-02T08:34:39.992Z,23.30
2018-11-02T08:37:08.147Z,21.23
2018-11-02T08:39:36.254Z,22.13
2018-11-02T08:42:04.730Z,24.97
2018-11-02T08:44:32.889Z,22.60
2018-11-02T08:47:01.049Z,23.47
2018-11-02T08:49:29.139Z,27.00
2018-11-02T08:51:57.396Z,24.70
2018-11-02T08:54:25.500Z,24.27
2018-11-02T08:56:53.763Z,25.30
2018-11-02T08:59:21.978Z,25.40
2018-11-02T09:01:50.169Z,22.70
2018-11-02T09:04:18.278Z,26.83
2018-11-02T09:06:46.470Z,28.03
2018-11-02T09:09:14.610Z,28.90
2018-11-02T09:11:42.750Z,26.67
2018-11-02T09:14:11.095Z,24.97
2018-11-02T09:16:39.277Z,24.00
2018-11-02T09:19:07.708Z,24.63
2018-11-02T09:21:35.900Z,26.30
2018-11-02T09:24:04.080Z,25.20
2018-11-02T09:26:32.132Z,25.23
2018-11-02T09:29:00.232Z,26.10
2018-11-02T09:31:28.403Z,26.10
2018-11-02T09:33:56.592Z,25.83
2018-11-02T09:36:24.817Z,27.13
2018-11-02T09:38:52.916Z,26.87
2018-11-02T09:41:21.004Z,25.83
2018-11-02T09:43:49.171Z,26.57
2018-11-02T09:46:17.264Z,26.90
2018-11-02T09:48:45.428Z,26.80
2018-11-02T09:51:13.654Z,25.67
2018-11-02T09:53:41.776Z,27.70
2018-11-02T09:56:09.961Z,26.90
2018-11-02T09:58:38.138Z,26.40
2018-11-02T10:01:06.320Z,25.77
2018-11-02T10:03:34.487Z,28.33
2018-11-02T10:06:02.665Z,26.47
2018-11-02T10:08:31.082Z,28.47
2018-11-02T10:10:59.100Z,29.57
2018-11-02T10:13:27.257Z,30.07
2018-11-02T10:15:55.336Z,27.83
2018-11-02T10:18:24.341Z,27.97
2018-11-02T10:20:52.640Z,28.73
2018-11-02T10:23:21.172Z,27.17
2018-11-02T10:25:49.407Z,36.80
2018-11-02T10:28:17.759Z,28.40
2018-11-02T10:30:45.884Z,27.43
2018-11-02T10:33:14.080Z,27.37
2018-11-02T10:35:42.518Z,29.93
2018-11-02T10:38:10.733Z,27.57
2018-11-02T10:40:40.781Z,25.30
2018-11-02T10:43:12.159Z,24.90
2018-11-02T10:45:43.896Z,24.33
2018-11-02T10:48:12.070Z,23.63
2018-11-02T10:50:40.240Z,22.80
2018-11-02T10:53:08.429Z,32.53
2018-11-02T10:55:36.583Z,22.30
2018-11-02T10:58:05.080Z,23.30
2018-11-02T11:00:38.694Z,23.40
2018-11-02T11:03:06.749Z,21.53
2018-11-02T11:05:34.948Z,23.13
2018-11-02T11:08:03.027Z,23.00
2018-11-02T11:10:31.195Z,22.70
2018-11-02T11:12:59.648Z,22.70
2018-11-02T11:15:27.456Z,23.70
2018-11-02T11:17:55.568Z,24.30
2018-11-02T11:20:23.745Z,25.10
2018-11-02T11:22:51.915Z,22.90
2018-11-02T11:25:20.080Z,25.77
2018-11-02T11:27:48.160Z,24.13
2018-11-02T11:30:17.655Z,24.83
2018-11-02T11:32:46.285Z,23.77
2018-11-02T11:35:15.839Z,23.70
2018-11-02T11:37:44.129Z,22.10
2018-11-02T11:40:14.230Z,22.80
2018-11-02T11:42:42.371Z,24.00
2018-11-02T11:45:12.540Z,21.73
2018-11-02T11:47:41.167Z,23.90
2018-11-02T11:50:16.579Z,22.80
2018-11-02T11:52:45.975Z,23.60
2018-11-02T11:55:14.952Z,23.93
2018-11-02T11:57:43.560Z,23.37
2018-11-02T12:00:13.656Z,24.20
2018-11-02T12:02:41.943Z,23.47
2018-11-02T12:05:11.932Z,25.27
2018-11-02T12:07:40.455Z,25.40
2018-11-02T12:10:10.874Z,27.63
2018-11-02T12:12:38.973Z,25.00
2018-11-02T12:15:09.111Z,24.67
2018-11-02T12:17:37.295Z,22.40
2018-11-02T12:20:08.556Z,22.70
2018-11-02T12:22:36.975Z,22.43
2018-11-02T12:25:05.821Z,22.90
2018-11-02T12:27:33.931Z,22.90
2018-11-02T12:30:02.007Z,22.27
2018-11-02T12:32:30.168Z,22.73
2018-11-02T12:34:58.265Z,23.07
2018-11-02T12:37:26.497Z,23.47
2018-11-02T12:39:54.664Z,22.00
2018-11-02T12:42:22.835Z,22.03
2018-11-02T12:44:50.975Z,23.50
2018-11-02T12:47:19.151Z,23.53
2018-11-02T12:49:47.690Z,23.00
2018-11-02T12:52:15.474Z,23.40
2018-11-02T12:54:43.703Z,22.43
2018-11-02T12:57:11.832Z,23.53
2018-11-02T12:59:40.089Z,26.97
2018-11-02T13:02:08.484Z,23.43
2018-11-02T13:04:36.640Z,28.13
2018-11-02T13:07:04.846Z,27.70
2018-11-02T13:09:32.976Z,28.40
2018-11-02T13:12:01.283Z,23.83
2018-11-02T13:14:29.469Z,21.87
2018-11-02T13:16:57.860Z,22.40
2018-11-02T13:19:26.024Z,22.93
2018-11-02T13:21:54.290Z,25.83
2018-11-02T13:24:22.264Z,25.10
2018-11-02T13:26:50.517Z,25.43
2018-11-02T13:29:18.659Z,22.70
2018-11-02T13:31:46.923Z,25.90
2018-11-02T13:34:14.971Z,22.83
2018-11-02T13:36:43.282Z,23.97
2018-11-02T13:39:12.647Z,24.10
2018-11-02T13:41:40.996Z,23.80
2018-11-02T13:44:09.439Z,23.80
2018-11-02T13:46:38.071Z,23.90
2018-11-02T13:49:06.664Z,23.93
2018-11-02T13:51:34.764Z,25.80
2018-11-02T13:54:03.034Z,24.60
2018-11-02T13:56:31.248Z,24.87
2018-11-02T13:58:59.403Z,24.50
2018-11-02T14:01:27.593Z,24.50
2018-11-02T14:03:55.795Z,23.97
2018-11-02T14:06:24.096Z,23.63
2018-11-02T14:08:52.395Z,22.87
2018-11-02T14:11:20.938Z,22.93
2018-11-02T14:13:49.119Z,23.33
2018-11-02T14:16:17.255Z,23.10
2018-11-02T14:18:45.419Z,23.73
2018-11-02T14:21:13.673Z,22.90
2018-11-02T14:23:41.850Z,23.57
2018-11-02T14:26:10.064Z,22.70
2018-11-02T14:28:38.587Z,22.70
2018-11-02T14:31:06.941Z,24.70
2018-11-02T14:33:35.059Z,22.77
2018-11-02T14:36:03.805Z,23.00
2018-11-02T14:38:33.155Z,23.53
2018-11-02T14:41:01.498Z,25.40
2018-11-02T14:43:29.474Z,30.87
2018-11-02T14:45:57.570Z,36.83
2018-11-02T14:48:25.719Z,25.17
2018-11-02T14:50:53.955Z,28.13
2018-11-02T14:53:22.072Z,24.60
2018-11-02T14:55:50.328Z,26.50
2018-11-02T14:58:18.451Z,26.53
2018-11-02T15:00:46.703Z,25.50
2018-11-02T15:03:14.916Z,23.50
2018-11-02T15:05:43.053Z,24.83
2018-11-02T15:08:11.234Z,25.70
2018-11-02T15:10:39.419Z,24.60
2018-11-02T15:13:07.596Z,23.33
2018-11-02T15:15:35.743Z,24.12
2018-11-02T15:18:03.957Z,23.90
2018-11-02T15:20:32.187Z,22.63
2018-11-02T15:23:00.455Z,24.30
2018-11-02T15:25:28.661Z,23.73
2018-11-02T15:27:56.825Z,22.40
2018-11-02T15:30:25.080Z,23.20
2018-11-02T15:32:53.220Z,26.17
2018-11-02T15:35:21.384Z,26.40
2018-11-02T15:37:49.553Z,25.77
2018-11-02T15:40:17.702Z,24.17
2018-11-02T15:42:45.893Z,23.67
2018-11-02T15:45:15.077Z,23.43
2018-11-02T15:47:43.804Z,23.70
2018-11-02T15:50:12.022Z,24.37
2018-11-02T15:52:40.774Z,23.90
2018-11-02T15:55:10.290Z,24.73
2018-11-02T15:57:38.583Z,23.93
2018-11-02T16:00:09.557Z,24.83
2018-11-02T16:02:37.755Z,23.03
2018-11-02T16:05:06.525Z,23.63
2018-11-02T16:07:34.787Z,22.50
2018-11-02T16:10:03.098Z,25.83
2018-11-02T16:12:31.515Z,29.07
2018-11-02T16:14:59.651Z,23.03
2018-11-02T16:17:27.852Z,26.40
2018-11-02T16:19:56.065Z,24.20
2018-11-02T16:22:24.198Z,24.30
2018-11-02T16:24:52.385Z,25.70
2018-11-02T16:27:20.667Z,27.63
2018-11-02T16:29:48.780Z,23.50
2018-11-02T16:32:17.000Z,26.07
2018-11-02T16:34:45.160Z,23.40
2018-11-02T16:37:13.684Z,24.87
2018-11-02T16:39:41.979Z,25.67
2018-11-02T16:42:10.194Z,25.20
2018-11-02T16:44:38.429Z,24.43
2018-11-02T16:47:06.519Z,24.90
2018-11-02T16:49:34.717Z,23.77
2018-11-02T16:52:03.088Z,24.20
2018-11-02T16:54:31.740Z,23.93
2018-11-02T16:56:59.845Z,24.90
2018-11-02T16:59:28.161Z,24.50
2018-11-02T17:01:56.279Z,24.23
2018-11-02T17:04:24.580Z,24.77
2018-11-02T17:06:52.900Z,24.87
2018-11-02T17:09:21.194Z,23.97
2018-11-02T17:11:49.442Z,24.13
2018-11-02T17:14:17.592Z,24.40
2018-11-02T17:16:45.747Z,24.43
2018-11-02T17:19:13.915Z,35.57
2018-11-02T17:21:42.137Z,31.10
2018-11-02T17:24:10.392Z,27.40
2018-11-02T17:26:38.553Z,26.07
2018-11-02T17:29:06.887Z,24.73
2018-11-02T17:31:35.133Z,25.23
2018-11-02T17:34:03.249Z,25.20
2018-11-02T17:36:31.547Z,25.53
2018-11-02T17:38:59.616Z,24.50
2018-11-02T17:41:27.867Z,24.20
2018-11-02T17:43:56.064Z,23.80
2018-11-02T17:46:24.312Z,23.87
2018-11-02T17:48:52.541Z,25.10
2018-11-02T17:51:20.696Z,24.73
2018-11-02T17:53:48.892Z,25.07
2018-11-02T17:56:17.080Z,24.40
2018-11-02T17:58:46.938Z,24.30
2018-11-02T18:01:15.567Z,30.47
2018-11-02T18:03:44.240Z,28.97
2018-11-02T18:06:17.177Z,24.47
2018-11-02T18:08:49.919Z,25.30
2018-11-02T18:11:18.220Z,24.63
2018-11-02T18:13:46.965Z,26.63
2018-11-02T18:16:15.476Z,26.60
2018-11-02T18:18:43.741Z,25.93
2018-11-02T18:21:11.904Z,24.77
2018-11-02T18:23:40.344Z,24.40
2018-11-02T18:26:11.513Z,25.70
2018-11-02T18:28:39.704Z,27.83
2018-11-02T18:31:08.192Z,25.40
2018-11-02T18:33:36.493Z,24.53
2018-11-02T18:36:05.361Z,25.70
2018-11-02T18:38:34.596Z,23.37
2018-11-02T18:41:02.879Z,24.57
2018-11-02T18:43:31.172Z,25.07
2018-11-02T18:46:00.178Z,24.13
2018-11-02T18:48:28.511Z,24.77
2018-11-02T18:50:57.043Z,24.20
2018-11-02T18:53:25.279Z,24.73
2018-11-02T18:55:53.673Z,26.30
2018-11-02T18:58:21.799Z,26.63
2018-11-02T19:00:49.998Z,25.67
2018-11-02T19:03:18.511Z,24.40
2018-11-02T19:05:46.759Z,24.37
2018-11-02T19:08:14.925Z,24.60
2018-11-02T19:10:43.400Z,25.27
2018-11-02T19:13:11.769Z,24.00
2018-11-02T19:15:40.011Z,24.17
2018-11-02T19:18:08.154Z,23.43
2018-11-02T19:20:36.300Z,24.67
2018-11-02T19:23:04.734Z,25.37
2018-11-02T19:25:33.039Z,26.27
2018-11-02T19:28:01.276Z,24.67
2018-11-02T19:30:29.798Z,26.60
2018-11-02T19:32:58.018Z,24.63
2018-11-02T19:35:26.183Z,24.27
2018-11-02T19:37:54.393Z,24.73
2018-11-02T19:40:22.514Z,24.80
2018-11-02T19:42:50.878Z,24.77
2018-11-02T19:45:19.109Z,38.03
2018-11-02T19:47:54.855Z,24.67
2018-11-02T19:50:23.205Z,25.40
2018-11-02T19:52:51.547Z,24.40
2018-11-02T19:55:19.862Z,24.87
2018-11-02T19:57:47.878Z,23.53
2018-11-02T20:00:17.052Z,24.33
2018-11-02T20:02:45.296Z,25.70
2018-11-02T20:05:15.213Z,24.40
2018-11-02T20:07:43.485Z,24.27
2018-11-02T20:10:12.812Z,24.50
2018-11-02T20:12:43.356Z,23.47
2018-11-02T20:15:12.505Z,32.50
2018-11-02T20:17:41.110Z,28.27
2018-11-02T20:20:10.456Z,27.00
2018-11-02T20:22:39.014Z,24.70
2018-11-02T20:25:08.589Z,23.90
2018-11-02T20:27:36.771Z,25.13
2018-11-02T20:30:07.194Z,24.67
2018-11-02T20:32:35.360Z,23.13
2018-11-02T20:35:03.613Z,23.23
2018-11-02T20:37:31.774Z,23.73
2018-11-02T20:40:00.068Z,24.80
2018-11-02T20:42:28.363Z,24.47
2018-11-02T20:44:56.568Z,26.20
2018-11-02T20:47:24.821Z,23.80
2018-11-02T20:49:53.072Z,23.60
2018-11-02T20:52:21.151Z,24.53
2018-11-02T20:54:49.380Z,25.73
2018-11-02T20:57:17.517Z,24.53
2018-11-02T20:59:45.800Z,25.30
2018-11-02T21:02:14.048Z,25.90
2018-11-02T21:04:42.372Z,23.90
2018-11-02T21:07:10.573Z,25.60
2018-11-02T21:09:38.996Z,24.60
2018-11-02T21:12:07.066Z,24.77
2018-11-02T21:14:35.497Z,25.00
2018-11-02T21:17:03.475Z,25.20
2018-11-02T21:19:31.712Z,24.60
2018-11-02T21:22:02.844Z,23.03
2018-11-02T21:24:31.176Z,23.70
2018-11-02T21:26:59.375Z,24.20
2018-11-02T21:29:27.692Z,24.03
2018-11-02T21:31:55.844Z,24.87
2018-11-02T21:34:24.097Z,24.50
2018-11-02T21:36:52.303Z,31.90
2018-11-02T21:39:20.470Z,23.53
2018-11-02T21:41:48.665Z,24.17
2018-11-02T21:44:16.815Z,27.27
2018-11-02T21:46:44.972Z,23.63
2018-11-02T21:49:13.571Z,23.63
2018-11-02T21:51:41.754Z,23.93
2018-11-02T21:54:09.982Z,24.13
2018-11-02T21:56:38.314Z,22.70
2018-11-02T21:59:06.587Z,24.43
2018-11-02T22:01:34.760Z,24.33
2018-11-02T22:04:02.933Z,22.37
2018-11-02T22:06:31.169Z,23.10
2018-11-02T22:08:59.483Z,22.80
2018-11-02T22:11:27.744Z,21.73
2018-11-02T22:13:56.074Z,23.33
2018-11-02T22:16:24.838Z,22.80
2018-11-02T22:18:53.098Z,23.70
2018-11-02T22:21:21.765Z,23.23
2018-11-02T22:23:49.956Z,24.03
2018-11-02T22:26:18.115Z,23.43
2018-11-02T22:28:46.321Z,22.77
2018-11-02T22:31:14.560Z,22.30
2018-11-02T22:33:42.900Z,23.00
2018-11-02T22:36:11.008Z,21.90
2018-11-02T22:38:39.113Z,23.27
2018-11-02T22:41:07.323Z,21.70
2018-11-02T22:43:35.461Z,22.40
2018-11-02T22:46:03.765Z,22.57
2018-11-02T22:48:31.993Z,22.80
2018-11-02T22:51:00.117Z,22.20
2018-11-02T22:53:28.263Z,22.77
2018-11-02T22:55:56.422Z,21.57
2018-11-02T22:58:24.598Z,21.67
2018-11-02T23:00:58.159Z,23.37
2018-11-02T23:03:26.256Z,21.80
2018-11-02T23:05:54.442Z,23.73
2018-11-02T23:08:22.592Z,22.23
2018-11-02T23:10:50.659Z,23.07
2018-11-02T23:13:18.807Z,23.23
2018-11-02T23:15:46.959Z,23.33
2018-11-02T23:18:15.127Z,23.23
2018-11-02T23:20:43.295Z,23.73
2018-11-02T23:23:11.495Z,25.10
2018-11-02T23:25:39.653Z,24.97
2018-11-02T23:28:10.825Z,25.00
2018-11-02T23:30:38.939Z,24.27
2018-11-02T23:33:07.155Z,22.43
2018-11-02T23:35:35.323Z,25.70
2018-11-02T23:38:03.503Z,24.07
2018-11-02T23:40:31.634Z,22.57
2018-11-02T23:42:59.796Z,24.30
2018-11-02T23:45:27.980Z,25.50
2018-11-02T23:48:01.608Z,22.00
2018-11-02T23:50:29.784Z,23.50
2018-11-02T23:52:57.908Z,21.83
2018-11-02T23:55:26.010Z,22.90
2018-11-02T23:57:54.187Z,22.30
